Wadesville, Pennsylvania
Current Conditions -  °F | °C
As of 3:58 PM on Monday 24 Nov 2014 (Local Time) from KMUI Reporting Station
Broken Clouds Broken Clouds  
Wind Chill: 68°   Ceiling: 6000
Heat Index: 68°   Visibility: 10mi
Dew Point: 53°   Wind: 10mph
Humidity: 59%   Direction: 220°SW
Pressure: 29.58"   Gusts: 24mph
Location:  40.6882°N, 76.264°W
Report Text: KMUI 242058Z AUTO 22009G21KT 10SM SCT047 BKN060 20/12 A2958 RMK AO2 SLP018 T01980116 53016 $
Loading
Personal Weather Stations






























Interactive Weather Map New forecast layout! Learn more

10-Day Weather Forecast

Advertisements
Track Severe Weather on mobile